createdAt,value
2024-03-01T00:00:21.996Z,27.58
2024-03-01T00:05:23.739Z,27.35
2024-03-01T00:10:25.722Z,29.55
2024-03-01T00:15:29.029Z,31.42
2024-03-01T00:20:30.875Z,28.52
2024-03-01T00:25:32.749Z,30.62
2024-03-01T00:30:37.902Z,29.17
2024-03-01T00:35:39.863Z,28.23
2024-03-01T00:40:41.673Z,28.08
2024-03-01T00:45:44.874Z,29.02
2024-03-01T00:50:49.390Z,32.80
2024-03-01T01:00:54.447Z,30.23
2024-03-01T01:05:56.787Z,32.70
2024-03-01T01:10:58.772Z,30.15
2024-03-01T01:16:01.958Z,28.95
2024-03-01T01:21:04.188Z,29.40
2024-03-01T01:26:06.080Z,28.65
2024-03-01T01:31:09.556Z,27.67
2024-03-01T01:36:11.436Z,27.77
2024-03-01T01:41:13.288Z,30.77
2024-03-01T01:46:17.356Z,32.40
2024-03-01T01:51:20.123Z,33.17
2024-03-01T01:56:22.123Z,31.02
2024-03-01T02:01:25.777Z,28.45
2024-03-01T02:06:30.370Z,32.67
2024-03-01T02:16:35.518Z,29.37
2024-03-01T02:21:44.419Z,27.92
2024-03-01T02:26:47.696Z,30.05
2024-03-01T02:31:49.514Z,26.52
2024-03-01T02:36:51.543Z,29.77
2024-03-01T02:41:54.792Z,28.73
2024-03-01T02:46:56.641Z,29.10
2024-03-01T02:51:58.458Z,28.58
2024-03-01T02:57:01.648Z,30.40
2024-03-01T03:02:03.482Z,29.67
2024-03-01T03:07:10.449Z,30.20
2024-03-01T03:12:14.844Z,30.90
2024-03-01T03:17:16.623Z,28.50
2024-03-01T03:22:18.465Z,32.17
2024-03-01T03:27:21.644Z,29.40
2024-03-01T03:32:23.496Z,29.60
2024-03-01T03:37:25.315Z,29.30
2024-03-01T03:42:28.358Z,28.90
2024-03-01T03:47:30.179Z,34.95
2024-03-01T03:52:32.150Z,30.62
2024-03-01T03:57:35.832Z,32.42
2024-03-01T04:02:37.960Z,29.23
2024-03-01T04:07:39.880Z,27.23
2024-03-01T04:12:43.104Z,37.38
2024-03-01T04:17:44.952Z,28.83
2024-03-01T04:22:46.774Z,31.77
2024-03-01T04:27:49.967Z,29.48
2024-03-01T04:32:51.772Z,29.83
2024-03-01T04:37:53.662Z,31.73
2024-03-01T04:42:56.857Z,29.02
2024-03-01T04:47:58.679Z,29.70
2024-03-01T04:53:00.505Z,29.25
2024-03-01T04:58:03.934Z,28.75
2024-03-01T05:03:09.059Z,30.00
2024-03-01T05:08:11.135Z,30.67
2024-03-01T05:13:14.507Z,28.58
2024-03-01T05:18:22.171Z,28.92
2024-03-01T05:23:23.980Z,27.10
2024-03-01T05:28:27.197Z,30.27
2024-03-01T05:33:29.033Z,28.73
2024-03-01T05:38:30.889Z,25.83
2024-03-01T05:43:34.280Z,27.17
2024-03-01T05:48:36.109Z,29.48
2024-03-01T05:53:38.103Z,29.85
2024-03-01T05:58:41.423Z,30.95
2024-03-01T06:03:43.324Z,29.00
2024-03-01T06:08:45.277Z,28.85
2024-03-01T06:13:48.507Z,27.55
2024-03-01T06:18:50.356Z,26.75
2024-03-01T06:23:52.190Z,28.87
2024-03-01T06:28:55.319Z,28.42
2024-03-01T06:33:57.249Z,27.67
2024-03-01T06:39:04.158Z,31.15
2024-03-01T06:44:07.482Z,30.33
2024-03-01T06:49:09.300Z,33.00
2024-03-01T06:54:20.723Z,30.85
2024-03-01T06:59:35.715Z,30.42
2024-03-01T07:04:37.650Z,30.20
2024-03-01T07:09:39.450Z,29.87
2024-03-01T07:14:42.711Z,28.00
2024-03-01T07:19:44.651Z,29.30
2024-03-01T07:24:46.493Z,29.67
2024-03-01T07:29:49.708Z,28.90
2024-03-01T07:34:51.514Z,27.95
2024-03-01T07:39:53.355Z,27.02
2024-03-01T07:44:57.519Z,29.85
2024-03-01T07:49:59.342Z,28.65
2024-03-01T07:55:01.201Z,28.83
2024-03-01T08:00:05.432Z,26.58
2024-03-01T08:05:07.419Z,30.55
2024-03-01T08:10:13.158Z,31.70
2024-03-01T08:15:22.646Z,33.63
2024-03-01T08:20:57.346Z,33.42
2024-03-01T08:25:59.273Z,33.27
2024-03-01T08:31:02.457Z,32.72
2024-03-01T08:36:04.550Z,31.87
2024-03-01T08:41:06.473Z,32.38
2024-03-01T08:46:24.352Z,40.95
2024-03-01T08:51:26.881Z,31.92
2024-03-01T08:56:33.691Z,32.50
2024-03-01T09:01:48.358Z,35.35
2024-03-01T09:06:56.510Z,33.30
2024-03-01T09:11:58.373Z,29.20
2024-03-01T09:17:02.037Z,29.85
2024-03-01T09:22:04.328Z,34.15
2024-03-01T09:28:31.906Z,29.70
2024-03-01T09:32:55.889Z,36.28
2024-03-01T09:37:58.077Z,28.12
2024-03-01T09:43:17.384Z,32.33
2024-03-01T09:48:51.516Z,30.25
2024-03-01T09:54:13.028Z,29.58
2024-03-01T09:59:25.020Z,28.80
2024-03-01T10:04:45.619Z,28.42
2024-03-01T10:10:52.008Z,27.90
2024-03-01T10:16:04.542Z,26.35
2024-03-01T10:21:38.767Z,28.20
2024-03-01T10:26:48.225Z,27.35
2024-03-01T10:32:05.723Z,27.25
2024-03-01T10:37:22.364Z,26.80
2024-03-01T10:42:58.530Z,26.75
2024-03-01T10:48:13.575Z,26.92
2024-03-01T10:59:26.550Z,25.40
2024-03-01T11:04:35.540Z,26.95
2024-03-01T11:09:48.027Z,27.42
2024-03-01T11:15:34.596Z,25.45
2024-03-01T11:27:10.081Z,24.70
2024-03-01T11:32:28.843Z,25.73
2024-03-01T11:44:03.985Z,24.63
2024-03-01T11:55:37.006Z,21.55
2024-03-01T12:07:27.668Z,21.73
2024-03-01T12:30:23.603Z,21.50
2024-03-01T12:41:12.703Z,22.13
2024-03-01T12:46:38.340Z,21.40
2024-03-01T13:07:35.400Z,20.17
2024-03-01T13:12:37.886Z,19.55
2024-03-01T13:17:50.647Z,20.02
2024-03-01T13:23:03.111Z,18.45
2024-03-01T13:28:10.421Z,20.67
2024-03-01T13:33:30.086Z,19.65
2024-03-01T13:38:50.880Z,20.08
2024-03-01T13:44:04.275Z,19.98
2024-03-01T13:49:06.951Z,18.25
2024-03-01T13:54:14.336Z,20.58
2024-03-01T13:59:16.174Z,19.25
2024-03-01T14:04:18.034Z,20.55
2024-03-01T14:09:21.761Z,18.27
2024-03-01T14:14:23.640Z,20.50
2024-03-01T14:19:25.482Z,22.45
2024-03-01T14:24:31.692Z,20.55
2024-03-01T14:29:33.630Z,20.37
2024-03-01T14:34:45.900Z,20.77
2024-03-01T14:39:49.422Z,21.10
2024-03-01T14:44:57.306Z,20.25
2024-03-01T14:50:25.895Z,20.27
2024-03-01T14:55:29.920Z,21.60
2024-03-01T15:00:32.472Z,20.33
2024-03-01T15:05:35.504Z,20.17
2024-03-01T15:10:44.378Z,20.85
2024-03-01T15:21:15.349Z,21.17
2024-03-01T15:26:39.674Z,21.67
2024-03-01T15:36:59.021Z,21.48
2024-03-01T15:42:02.493Z,21.30
2024-03-01T15:47:04.821Z,20.52
2024-03-01T15:52:07.114Z,20.80
2024-03-01T15:57:11.787Z,21.92
2024-03-01T16:02:14.016Z,23.12
2024-03-01T16:07:16.233Z,23.30
2024-03-01T16:12:19.493Z,23.38
2024-03-01T16:17:23.072Z,22.15
2024-03-01T16:22:26.859Z,21.15
2024-03-01T16:27:30.201Z,22.05
2024-03-01T16:32:41.925Z,21.48
2024-03-01T16:37:43.741Z,22.33
2024-03-01T16:42:51.465Z,21.87
2024-03-01T16:47:53.398Z,20.48
2024-03-01T16:52:55.303Z,22.67
2024-03-01T16:57:58.826Z,21.42
2024-03-01T17:03:00.713Z,21.17
2024-03-01T17:08:02.605Z,21.95
2024-03-01T17:13:06.142Z,22.90
2024-03-01T17:18:09.160Z,23.30
2024-03-01T17:23:11.103Z,21.80
2024-03-01T17:28:14.854Z,22.30
2024-03-01T17:55:38.225Z,24.90
2024-03-01T19:16:35.116Z,23.62
2024-03-01T19:21:37.148Z,23.83
2024-03-01T19:26:39.013Z,25.25
2024-03-01T19:31:42.717Z,24.42
2024-03-01T19:36:44.682Z,24.95
2024-03-01T19:41:46.617Z,24.37
2024-03-01T19:46:49.856Z,22.50
2024-03-01T19:51:51.690Z,23.48
2024-03-01T19:56:55.719Z,23.98
2024-03-01T20:02:01.303Z,25.87
2024-03-01T20:07:03.386Z,22.90
2024-03-01T20:12:05.717Z,26.67
2024-03-01T20:17:09.142Z,23.48
2024-03-01T20:22:11.049Z,23.42
2024-03-01T20:27:12.853Z,24.52
2024-03-01T20:32:16.126Z,22.25
2024-03-01T20:37:17.992Z,23.02
2024-03-01T20:42:19.849Z,23.38
2024-03-01T20:47:26.439Z,23.08
2024-03-01T20:52:28.402Z,24.27
2024-03-01T20:57:30.317Z,25.33
2024-03-01T21:02:35.431Z,24.23
2024-03-01T21:07:44.687Z,23.50
2024-03-01T21:19:16.809Z,23.42
2024-03-01T21:30:03.954Z,23.55
2024-03-01T21:40:57.299Z,25.73
2024-03-01T21:45:59.241Z,23.42
2024-03-01T21:51:04.852Z,23.40
2024-03-01T21:56:09.637Z,23.87
2024-03-01T22:01:11.669Z,25.62
2024-03-01T22:11:56.105Z,23.23
2024-03-01T22:16:58.223Z,25.02
2024-03-01T22:22:00.361Z,23.80
2024-03-01T22:27:03.874Z,23.15
2024-03-01T22:37:54.187Z,24.10
2024-03-01T22:42:58.743Z,25.35
2024-03-01T22:48:00.734Z,24.73
2024-03-01T22:53:02.828Z,23.60
2024-03-01T22:58:08.107Z,25.02
2024-03-01T23:03:37.960Z,23.92
2024-03-01T23:08:45.485Z,23.92
2024-03-01T23:13:48.849Z,25.23
2024-03-01T23:18:50.816Z,25.62
2024-03-01T23:23:52.756Z,26.48
2024-03-01T23:28:56.085Z,25.40
2024-03-01T23:33:58.253Z,25.90
2024-03-01T23:39:00.178Z,25.33
2024-03-01T23:44:03.335Z,25.85
2024-03-01T23:49:05.792Z,25.75
2024-03-01T23:54:08.103Z,26.20
2024-03-01T23:59:11.376Z,26.12
